This is the latest recevied weather packets stored in our database for station/object K9ZOG. If no packets are shown the sender has not sent any weather packets the latest 10 day(s).
| Time | Temp. | Humidity | Pressure | Rain* | Wind** | Luminosity | Snow |
|---|---|---|---|---|---|---|---|
| 1778072954 | 6.67° C | 63% | 1012.5 hPa | 0 mm | - | 68 W/m² | - |
| 1778072653 | 6.67° C | 64% | 1012.4 hPa | 0 mm | - | 68 W/m² | - |
| 1778072355 | 6.67° C | 64% | 1012.4 hPa | 0 mm | - | 61 W/m² | - |
| 1778072053 | 6.67° C | 65% | 1012.4 hPa | 0 mm | - | 57 W/m² | - |
| 1778071753 | 6.11° C | 67% | 1012.5 hPa | 0 mm | - | 54 W/m² | - |
| 1778071453 | 6.11° C | 67% | 1012.5 hPa | 0 mm | - | 52 W/m² | - |
| 1778071154 | 6.11° C | 67% | 1012.5 hPa | 0 mm | - | 49 W/m² | - |
| 1778070853 | 5.56° C | 69% | 1012.5 hPa | 0 mm | - | 47 W/m² | - |
| 1778070555 | 5.56° C | 70% | 1012.5 hPa | 0 mm | - | 46 W/m² | - |
| 1778070253 | 5.56° C | 71% | 1012.3 hPa | 0 mm | - | 45 W/m² | - |
| 1778069954 | 5° C | 70% | 1012.3 hPa | 0 mm | - | 43 W/m² | - |
| 1778069653 | 5° C | 71% | 1012.2 hPa | 0 mm | - | 42 W/m² | - |
| 1778069356 | 4.44° C | 73% | 1012.2 hPa | 0 mm | - | 41 W/m² | - |
| 1778069055 | 4.44° C | 74% | 1012.2 hPa | 0 mm | - | 40 W/m² | - |
| 1778068753 | 3.89° C | 74% | 1012.1 hPa | 0 mm | - | 39 W/m² | - |
| 1778068453 | 3.33° C | 78% | 1012.2 hPa | 0 mm | - | 38 W/m² | - |
| 1778068153 | 2.78° C | 86% | 1013 hPa | 0 mm | - | 35 W/m² | - |
| 1778067853 | 2.78° C | 87% | 1012.9 hPa | 0 mm | - | 34 W/m² | - |
| 1778067554 | 2.78° C | 88% | 1012.8 hPa | 0 mm | - | 34 W/m² | - |
| 1778067253 | 2.22° C | 87% | 1012.7 hPa | 0 mm | - | 34 W/m² | - |
| 1778066954 | 2.22° C | 87% | 1012.4 hPa | 0 mm | - | 29 W/m² | - |
| 1778066654 | 2.22° C | 87% | 1012.3 hPa | 0 mm | - | 28 W/m² | - |
| 1778066359 | 2.22° C | 87% | 1012.2 hPa | 0 mm | - | 27 W/m² | - |
| 1778066057 | 2.22° C | 87% | 1012 hPa | 0 mm | - | 24 W/m² | - |
| 1778065755 | 2.22° C | 86% | 1012 hPa | 0 mm | - | 20 W/m² | - |
* Rain latest hour (hover to see other rain measurements)
** Current wind speed in m/s (hover to see current wind gust speed)